Airfield :
LOGIN :

Register | Disclaimer

   EN    FR    IT 

 










Legend :    VFR   Marginal VFR   IFR   Intensive IFR   Very Intensive IFR
Visi :
Ceiling :
>= 8 km
>= 3000ft
5 to 8 km
1000 to 3000 ft
1500m to 5 km
500 to 1000 ft
800 to 1500m
200 to 500 ft
< 800m
< 200 ft
Symbols :   Thunderstorms  Fog  Heavy snow  Heavy precipitations  Wind > 20 kt
SIGMETs :     Misc.  Thunderstorms  Icing  Turbulence  Mountain Waves  Volcanic Ashes







- Airport Elevation : 751 ft
- IATA code : ENC
- Download approach charts


LFSN - Nancy Essey

CURRENT METAR :
  • 242000Z AUTO 10003KT CAVOK 08/06 Q1006

EXPIRED METARs :
  • 241930Z AUTO 11005KT CAVOK 09/06 Q1006
  • 241900Z AUTO 11005KT CAVOK 10/07 Q1006
  • 241830Z AUTO 15008KT CAVOK 10/07 Q1005
  • 241800Z AUTO 14011KT 9999 ///TCU 10/07 Q1005

Expired Forecast.
No reported NOTAMs for that airfield.
2 SIGMETs reported for the Reims FIR (LFEE) :
 
Severe turbulence
LFEE SIGMET 13 VALID 242000/242300 LFPW
LFEE REIMS FIR/UIR SEV TURB FCST WI N4630 E00530 - N4630 E00445 - N4715 E00430 - N4745 E00530 - N4630 E00530 SFC/FL080 STNR NC=
Severe turbulence
LFEE SIGMET 12 VALID 241800/242000 LFPW
LFEE REIMS FIR/UIR SEV TURB FCST WI N4630 E00530 - N4630 E00445 - N4730 E00415 - N4800 E00500 - N4715 E00530 - N4630 E00530 SFC/FL100 STNR NC=



MET'MAP, your aeronautical weather chart ! - Copyright ORBIFLY December 2007 - Disclaimer

ORBIFLY MET'MAP TEAM :

Programming & Development : Alexandra Zaïnal
Concept & Development : Baudouin d'Aumeries
Co-Development & Prog : Marc-Olivier Méhu
Technical & hardware support : Manuel Goepfert

Contact : metmap@orbifly.com




SOURCES & CREDITS :

   NOAA